CXA127 ZSAM-ZBAD
Flight info
| Callsign | CXA127 |
|---|---|
| Flight time | 2h 21m |
| Altitude | 41100 |
| Route | BUPDU5T BUPDU W643 FOC W644 LEVGU/K0915S1220 W644 AKAVO/K0907S1250 A470 EMRID/K0919S1220 V143 SAPIN A470 DPX A593 DALIM W157 AVBOX AVBOX5L |
| Aircraft | A359/H-SDE2E3FGHIRWXY/LB1 |
Departure
| Time | 2026-05-05 04:39 |
|---|---|
| Airport | Xiamen Gaoqi International Airport (ZSAM) |
Arrival
| Time | 2026-05-05 07:01 |
|---|---|
| Airport | Beijing Daxing International Airport (ZBAD) |
| Time | Latitude | Longitude | Altitude | Speed | Heading |
|---|---|---|---|---|---|
| 2026-05-05 04:06 | 24.53831 | 118.12630 | 64 ft | 0 kts | 142° |
| 2026-05-05 04:23 | 24.53839 | 118.12623 | 55 ft | 3 kts | 147° |
| 2026-05-05 04:23 | 24.53856 | 118.12612 | 57 ft | 3 kts | 156° |
| 2026-05-05 04:24 | 24.53875 | 118.12604 | 55 ft | 3 kts | 165° |
| 2026-05-05 04:24 | 24.53895 | 118.12599 | 55 ft | 3 kts | 171° |
| 2026-05-05 04:24 | 24.53914 | 118.12596 | 55 ft | 2 kts | 173° |
| 2026-05-05 04:25 | 24.53924 | 118.12594 | 55 ft | 0 kts | 172° |
| 2026-05-05 04:30 | 24.53911 | 118.12591 | 56 ft | 2 kts | 201° |
| 2026-05-05 04:30 | 24.53900 | 118.12582 | 57 ft | 2 kts | 218° |
| 2026-05-05 04:31 | 24.53888 | 118.12570 | 55 ft | 3 kts | 223° |
| 2026-05-05 04:31 | 24.53870 | 118.12548 | 55 ft | 5 kts | 231° |
| 2026-05-05 04:31 | 24.53844 | 118.12513 | 55 ft | 7 kts | 233° |
| 2026-05-05 04:31 | 24.53795 | 118.12442 | 56 ft | 15 kts | 232° |
| 2026-05-05 04:32 | 24.53726 | 118.12349 | 56 ft | 16 kts | 231° |
| 2026-05-05 04:32 | 24.53717 | 118.12250 | 57 ft | 14 kts | 302° |
| 2026-05-05 04:32 | 24.53759 | 118.12164 | 63 ft | 13 kts | 261° |
| 2026-05-05 04:32 | 24.53711 | 118.12074 | 58 ft | 14 kts | 232° |
| 2026-05-05 04:33 | 24.53646 | 118.11984 | 58 ft | 16 kts | 231° |
| 2026-05-05 04:33 | 24.53575 | 118.11885 | 59 ft | 18 kts | 232° |
| 2026-05-05 04:33 | 24.53496 | 118.11773 | 61 ft | 19 kts | 232° |
| 2026-05-05 04:33 | 24.53465 | 118.11730 | 60 ft | 0 kts | 232° |
| 2026-05-05 04:37 | 24.53464 | 118.11726 | 70 ft | 2 kts | 244° |
| 2026-05-05 04:37 | 24.53472 | 118.11690 | 62 ft | 9 kts | 293° |
| 2026-05-05 04:38 | 24.53561 | 118.11617 | 65 ft | 12 kts | 5° |
| 2026-05-05 04:38 | 24.53605 | 118.11644 | 61 ft | 11 kts | 41° |
| 2026-05-05 04:38 | 24.53664 | 118.11720 | 58 ft | 22 kts | 53° |
| 2026-05-05 04:38 | 24.53925 | 118.12086 | 55 ft | 98 kts | 52° |
| 2026-05-05 04:39 | 24.54476 | 118.12861 | 52 ft | 158 kts | 52° |
| 2026-05-05 04:39 | 24.55202 | 118.13899 | 598 ft | 171 kts | 52° |
| 2026-05-05 04:39 | 24.55952 | 118.14968 | 1111 ft | 180 kts | 52° |
| 2026-05-05 04:39 | 24.56761 | 118.16102 | 1340 ft | 200 kts | 51° |
| 2026-05-05 04:40 | 24.57696 | 118.17390 | 1727 ft | 230 kts | 51° |
| 2026-05-05 04:40 | 24.58721 | 118.18808 | 2486 ft | 241 kts | 51° |
| 2026-05-05 04:40 | 24.59769 | 118.20267 | 3430 ft | 247 kts | 52° |
| 2026-05-05 04:40 | 24.60857 | 118.21781 | 4302 ft | 258 kts | 50° |
| 2026-05-05 04:41 | 24.62206 | 118.23150 | 5091 ft | 271 kts | 33° |
| 2026-05-05 04:41 | 24.63842 | 118.24249 | 5908 ft | 279 kts | 28° |
| 2026-05-05 04:41 | 24.65525 | 118.25303 | 6834 ft | 285 kts | 27° |
| 2026-05-05 04:41 | 24.67270 | 118.26406 | 7766 ft | 292 kts | 27° |
| 2026-05-05 04:42 | 24.69035 | 118.27533 | 8750 ft | 296 kts | 27° |
| 2026-05-05 04:42 | 24.70835 | 118.28689 | 9716 ft | 303 kts | 26° |
| 2026-05-05 04:42 | 24.72685 | 118.29877 | 10452 ft | 316 kts | 26° |
| 2026-05-05 04:42 | 24.74657 | 118.31143 | 10859 ft | 340 kts | 26° |
| 2026-05-05 04:43 | 24.76766 | 118.32502 | 11153 ft | 361 kts | 26° |
| 2026-05-05 04:43 | 24.78989 | 118.33935 | 11637 ft | 377 kts | 26° |
| 2026-05-05 04:43 | 24.81282 | 118.35420 | 12299 ft | 388 kts | 27° |
| 2026-05-05 04:43 | 24.83644 | 118.36954 | 12962 ft | 396 kts | 26° |
| 2026-05-05 04:44 | 24.86026 | 118.38503 | 13730 ft | 401 kts | 26° |
| 2026-05-05 04:44 | 24.88417 | 118.40055 | 14315 ft | 408 kts | 26° |
| 2026-05-05 04:44 | 24.90912 | 118.41676 | 14935 ft | 414 kts | 26° |
| 2026-05-05 04:44 | 24.93279 | 118.43459 | 15554 ft | 424 kts | 37° |
| 2026-05-05 04:45 | 24.95421 | 118.45739 | 16199 ft | 431 kts | 43° |
| 2026-05-05 04:45 | 24.97505 | 118.48151 | 16781 ft | 438 kts | 44° |
| 2026-05-05 04:45 | 24.99614 | 118.50601 | 17405 ft | 444 kts | 44° |
| 2026-05-05 04:45 | 25.01759 | 118.53082 | 18011 ft | 450 kts | 44° |
| 2026-05-05 04:46 | 25.03939 | 118.55599 | 18579 ft | 456 kts | 44° |
| 2026-05-05 04:46 | 25.06141 | 118.58140 | 19142 ft | 461 kts | 43° |
| 2026-05-05 04:46 | 25.08353 | 118.60720 | 19770 ft | 465 kts | 45° |
| 2026-05-05 04:46 | 25.10251 | 118.63641 | 20419 ft | 472 kts | 59° |
| 2026-05-05 04:47 | 25.11832 | 118.66837 | 20974 ft | 477 kts | 61° |
| 2026-05-05 04:47 | 25.13384 | 118.70095 | 21562 ft | 481 kts | 61° |
| 2026-05-05 04:47 | 25.14951 | 118.73371 | 22141 ft | 485 kts | 61° |
| 2026-05-05 04:47 | 25.16537 | 118.76677 | 22693 ft | 489 kts | 61° |
| 2026-05-05 04:48 | 25.18122 | 118.79971 | 23259 ft | 493 kts | 61° |
| 2026-05-05 04:48 | 25.19741 | 118.83334 | 23794 ft | 498 kts | 61° |
| 2026-05-05 04:48 | 25.21374 | 118.86725 | 24310 ft | 502 kts | 60° |
| 2026-05-05 04:48 | 25.23021 | 118.90147 | 24795 ft | 507 kts | 60° |
| 2026-05-05 04:49 | 25.24682 | 118.93598 | 25313 ft | 511 kts | 60° |
| 2026-05-05 04:49 | 25.26485 | 118.96993 | 25835 ft | 512 kts | 52° |
| 2026-05-05 04:49 | 25.28694 | 119.00076 | 26361 ft | 513 kts | 45° |
| 2026-05-05 04:49 | 25.31097 | 119.03004 | 26909 ft | 515 kts | 42° |
| 2026-05-05 04:50 | 25.33593 | 119.05855 | 27428 ft | 518 kts | 41° |
| 2026-05-05 04:50 | 25.36127 | 119.08694 | 27962 ft | 521 kts | 41° |
| 2026-05-05 04:50 | 25.38690 | 119.11573 | 28462 ft | 525 kts | 41° |
| 2026-05-05 04:50 | 25.41213 | 119.14441 | 28962 ft | 529 kts | 41° |
| 2026-05-05 04:51 | 25.43773 | 119.17383 | 29454 ft | 533 kts | 41° |
| 2026-05-05 04:51 | 25.46338 | 119.20359 | 29933 ft | 537 kts | 42° |
| 2026-05-05 04:51 | 25.48922 | 119.23374 | 30365 ft | 541 kts | 42° |
| 2026-05-05 04:51 | 25.51513 | 119.26406 | 30760 ft | 544 kts | 42° |
| 2026-05-05 04:52 | 25.54127 | 119.29469 | 31150 ft | 548 kts | 42° |
| 2026-05-05 04:52 | 25.56752 | 119.32561 | 31506 ft | 551 kts | 42° |
| 2026-05-05 04:52 | 25.59380 | 119.35667 | 31864 ft | 555 kts | 42° |
| 2026-05-05 04:52 | 25.62029 | 119.38803 | 32204 ft | 558 kts | 42° |
| 2026-05-05 04:53 | 25.64690 | 119.41955 | 32543 ft | 561 kts | 42° |
| 2026-05-05 04:53 | 25.67365 | 119.45123 | 32863 ft | 564 kts | 42° |
| 2026-05-05 04:53 | 25.70056 | 119.48312 | 33181 ft | 568 kts | 42° |
| 2026-05-05 04:53 | 25.72767 | 119.51525 | 33521 ft | 571 kts | 42° |
| 2026-05-05 04:54 | 25.75499 | 119.54720 | 33828 ft | 572 kts | 39° |
| 2026-05-05 04:54 | 25.78538 | 119.57522 | 34116 ft | 564 kts | 27° |
| 2026-05-05 04:54 | 25.81875 | 119.59761 | 34345 ft | 561 kts | 22° |
| 2026-05-05 04:54 | 25.85308 | 119.61833 | 34559 ft | 561 kts | 20° |
| 2026-05-05 04:55 | 25.88729 | 119.63799 | 34736 ft | 562 kts | 20° |
| 2026-05-05 04:55 | 25.92222 | 119.65764 | 34902 ft | 563 kts | 19° |
| 2026-05-05 04:55 | 25.95740 | 119.67722 | 35032 ft | 564 kts | 19° |
| 2026-05-05 04:55 | 25.99263 | 119.69669 | 35154 ft | 566 kts | 19° |
| 2026-05-05 04:56 | 26.02789 | 119.71609 | 35279 ft | 566 kts | 18° |
| 2026-05-05 04:56 | 26.10161 | 119.74104 | 35368 ft | 543 kts | 359° |
| 2026-05-05 04:56 | 26.13897 | 119.74307 | 35396 ft | 530 kts | 348° |
| 2026-05-05 04:57 | 26.17502 | 119.73807 | 35420 ft | 515 kts | 338° |
| 2026-05-05 04:57 | 26.20882 | 119.72637 | 35444 ft | 501 kts | 328° |
| 2026-05-05 04:57 | 26.23881 | 119.70886 | 35457 ft | 487 kts | 318° |
| 2026-05-05 04:57 | 26.26496 | 119.68579 | 35475 ft | 474 kts | 308° |
| 2026-05-05 04:58 | 26.28735 | 119.65916 | 35482 ft | 472 kts | 307° |
| 2026-05-05 04:58 | 26.31436 | 119.63696 | 35499 ft | 492 kts | 323° |
| 2026-05-05 04:58 | 26.34680 | 119.62289 | 35507 ft | 513 kts | 337° |
| 2026-05-05 04:58 | 26.38290 | 119.61798 | 35517 ft | 535 kts | 351° |
| 2026-05-05 04:59 | 26.42050 | 119.62300 | 35521 ft | 554 kts | 6° |
| 2026-05-05 04:59 | 26.45727 | 119.63802 | 35529 ft | 572 kts | 20° |
| 2026-05-05 04:59 | 26.49129 | 119.66206 | 35544 ft | 584 kts | 31° |
| 2026-05-05 05:00 | 26.55962 | 119.70903 | 35550 ft | 567 kts | 14° |
| 2026-05-05 05:00 | 26.59682 | 119.72191 | 35552 ft | 554 kts | 3° |
| 2026-05-05 05:00 | 26.63465 | 119.72832 | 35560 ft | 544 kts | 356° |
| 2026-05-05 05:01 | 26.70969 | 119.73117 | 35580 ft | 537 kts | 351° |
| 2026-05-05 05:01 | 26.78452 | 119.73074 | 35583 ft | 537 kts | 351° |
| 2026-05-05 05:02 | 26.85937 | 119.73118 | 35595 ft | 539 kts | 351° |
| 2026-05-05 05:02 | 26.93392 | 119.73247 | 35601 ft | 538 kts | 351° |
| 2026-05-05 05:02 | 26.97097 | 119.72969 | 35604 ft | 525 kts | 342° |
| 2026-05-05 05:03 | 27.00618 | 119.72099 | 35611 ft | 511 kts | 333° |
| 2026-05-05 05:03 | 27.03875 | 119.70643 | 35618 ft | 497 kts | 323° |
| 2026-05-05 05:03 | 27.06892 | 119.68787 | 35625 ft | 492 kts | 320° |
| 2026-05-05 05:04 | 27.12736 | 119.64827 | 35629 ft | 490 kts | 319° |
| 2026-05-05 05:04 | 27.18491 | 119.60811 | 35638 ft | 490 kts | 319° |
| 2026-05-05 05:05 | 27.24575 | 119.57184 | 35644 ft | 506 kts | 330° |
| 2026-05-05 05:05 | 27.27988 | 119.56063 | 35646 ft | 520 kts | 339° |
| 2026-05-05 05:05 | 27.31634 | 119.55573 | 35656 ft | 533 kts | 348° |
| 2026-05-05 05:06 | 27.39100 | 119.55450 | 35659 ft | 539 kts | 351° |
| 2026-05-05 05:06 | 27.46615 | 119.55553 | 35672 ft | 540 kts | 351° |
| 2026-05-05 05:07 | 27.54310 | 119.55663 | 36128 ft | 530 kts | 351° |
| 2026-05-05 05:07 | 27.57921 | 119.55707 | 36769 ft | 522 kts | 351° |
| 2026-05-05 05:07 | 27.61543 | 119.55739 | 37224 ft | 519 kts | 350° |
| 2026-05-05 05:07 | 27.65156 | 119.55758 | 37593 ft | 518 kts | 351° |
| 2026-05-05 05:08 | 27.68762 | 119.55773 | 37960 ft | 517 kts | 351° |
| 2026-05-05 05:08 | 27.72350 | 119.55785 | 38307 ft | 516 kts | 351° |
| 2026-05-05 05:08 | 27.75952 | 119.55803 | 38610 ft | 516 kts | 350° |
| 2026-05-05 05:08 | 27.79546 | 119.55819 | 38852 ft | 517 kts | 350° |
| 2026-05-05 05:09 | 27.83143 | 119.55838 | 39150 ft | 515 kts | 351° |
| 2026-05-05 05:09 | 27.86718 | 119.55859 | 39529 ft | 512 kts | 350° |
| 2026-05-05 05:09 | 27.90275 | 119.55881 | 39848 ft | 510 kts | 350° |
| 2026-05-05 05:09 | 27.93818 | 119.55906 | 40127 ft | 509 kts | 351° |
| 2026-05-05 05:10 | 27.97325 | 119.55951 | 40385 ft | 508 kts | 351° |
| 2026-05-05 05:10 | 28.00845 | 119.56010 | 40792 ft | 504 kts | 351° |
| 2026-05-05 05:10 | 28.04348 | 119.56073 | 41100 ft | 503 kts | 351° |
| 2026-05-05 05:11 | 28.11355 | 119.56189 | 41180 ft | 504 kts | 352° |
| 2026-05-05 05:11 | 28.18394 | 119.56516 | 41174 ft | 506 kts | 354° |
| 2026-05-05 05:12 | 28.25434 | 119.56966 | 41168 ft | 507 kts | 354° |
| 2026-05-05 05:12 | 28.32466 | 119.57393 | 41164 ft | 506 kts | 354° |
| 2026-05-05 05:13 | 28.39509 | 119.57792 | 41159 ft | 506 kts | 353° |
| 2026-05-05 05:13 | 28.46499 | 119.58179 | 41162 ft | 506 kts | 353° |
| 2026-05-05 05:14 | 28.53557 | 119.58602 | 41157 ft | 507 kts | 354° |
| 2026-05-05 05:14 | 28.60599 | 119.59044 | 41151 ft | 507 kts | 354° |
| 2026-05-05 05:15 | 28.67668 | 119.59487 | 41153 ft | 508 kts | 354° |
| 2026-05-05 05:15 | 28.74734 | 119.59926 | 41143 ft | 508 kts | 354° |
| 2026-05-05 05:16 | 28.81749 | 119.60361 | 41154 ft | 509 kts | 354° |
| 2026-05-05 05:16 | 28.88817 | 119.60800 | 41144 ft | 509 kts | 354° |
| 2026-05-05 05:17 | 28.95885 | 119.61238 | 41142 ft | 509 kts | 354° |
| 2026-05-05 05:17 | 29.02966 | 119.61679 | 41141 ft | 509 kts | 354° |
| 2026-05-05 05:18 | 29.08896 | 119.62049 | 41143 ft | 509 kts | 354° |
| 2026-05-05 05:18 | 29.15922 | 119.62490 | 41138 ft | 509 kts | 354° |
| 2026-05-05 05:19 | 29.22995 | 119.62914 | 41137 ft | 509 kts | 354° |
| 2026-05-05 05:19 | 29.30078 | 119.63340 | 41138 ft | 509 kts | 355° |
| 2026-05-05 05:20 | 29.37154 | 119.63771 | 41139 ft | 509 kts | 355° |
| 2026-05-05 05:20 | 29.44190 | 119.64203 | 41138 ft | 509 kts | 355° |
| 2026-05-05 05:21 | 29.51270 | 119.64817 | 41135 ft | 517 kts | 2° |
| 2026-05-05 05:21 | 29.54798 | 119.65812 | 41136 ft | 528 kts | 12° |
| 2026-05-05 05:21 | 29.58202 | 119.67515 | 41134 ft | 538 kts | 23° |
| 2026-05-05 05:22 | 29.64592 | 119.72125 | 41133 ft | 544 kts | 28° |
| 2026-05-05 05:22 | 29.70831 | 119.77038 | 41120 ft | 544 kts | 29° |
| 2026-05-05 05:23 | 29.77076 | 119.81972 | 41136 ft | 544 kts | 28° |
| 2026-05-05 05:23 | 29.83341 | 119.86862 | 41136 ft | 543 kts | 28° |
| 2026-05-05 05:24 | 29.89568 | 119.91697 | 41138 ft | 543 kts | 28° |
| 2026-05-05 05:24 | 29.95826 | 119.96565 | 41132 ft | 543 kts | 28° |
| 2026-05-05 05:25 | 30.02086 | 120.01445 | 41112 ft | 542 kts | 28° |
| 2026-05-05 05:25 | 30.08337 | 120.06326 | 41117 ft | 543 kts | 28° |
| 2026-05-05 05:26 | 30.14591 | 120.11218 | 41112 ft | 543 kts | 28° |
| 2026-05-05 05:26 | 30.20841 | 120.16114 | 41111 ft | 542 kts | 28° |
| 2026-05-05 05:27 | 30.27184 | 120.20779 | 41115 ft | 534 kts | 19° |
| 2026-05-05 05:27 | 30.30624 | 120.22232 | 41113 ft | 520 kts | 6° |
| 2026-05-05 05:27 | 30.37587 | 120.22456 | 41118 ft | 489 kts | 340° |
| 2026-05-05 05:28 | 30.40789 | 120.21305 | 41113 ft | 474 kts | 328° |
| 2026-05-05 05:28 | 30.43617 | 120.19465 | 41114 ft | 461 kts | 317° |
| 2026-05-05 05:28 | 30.48488 | 120.14783 | 41112 ft | 461 kts | 315° |
| 2026-05-05 05:29 | 30.53594 | 120.10278 | 41111 ft | 462 kts | 316° |
| 2026-05-05 05:29 | 30.58774 | 120.05837 | 41106 ft | 463 kts | 317° |
| 2026-05-05 05:30 | 30.63983 | 120.01426 | 41102 ft | 463 kts | 317° |
| 2026-05-05 05:30 | 30.69188 | 119.97020 | 41119 ft | 463 kts | 317° |
| 2026-05-05 05:31 | 30.74397 | 119.92600 | 41107 ft | 463 kts | 317° |
| 2026-05-05 05:31 | 30.79601 | 119.88175 | 41107 ft | 463 kts | 317° |
| 2026-05-05 05:32 | 30.84752 | 119.83747 | 41103 ft | 463 kts | 317° |
| 2026-05-05 05:32 | 30.89928 | 119.79285 | 41103 ft | 463 kts | 317° |
| 2026-05-05 05:33 | 30.95101 | 119.74826 | 41100 ft | 463 kts | 317° |
| 2026-05-05 05:33 | 31.00283 | 119.70359 | 41096 ft | 463 kts | 317° |
| 2026-05-05 05:34 | 31.05455 | 119.65894 | 41097 ft | 463 kts | 317° |
| 2026-05-05 05:34 | 31.10637 | 119.61417 | 41097 ft | 463 kts | 317° |
| 2026-05-05 05:35 | 31.15805 | 119.56945 | 41091 ft | 463 kts | 318° |
| 2026-05-05 05:35 | 31.20949 | 119.52488 | 41094 ft | 463 kts | 318° |
| 2026-05-05 05:36 | 31.26130 | 119.48000 | 41095 ft | 463 kts | 318° |
| 2026-05-05 05:36 | 31.31306 | 119.43496 | 41094 ft | 463 kts | 318° |
| 2026-05-05 05:37 | 31.36474 | 119.38993 | 41095 ft | 463 kts | 318° |
| 2026-05-05 05:37 | 31.41653 | 119.34477 | 41092 ft | 464 kts | 318° |
| 2026-05-05 05:38 | 31.46828 | 119.29960 | 41092 ft | 464 kts | 318° |
| 2026-05-05 05:38 | 31.51970 | 119.25466 | 41094 ft | 464 kts | 318° |
| 2026-05-05 05:39 | 31.57157 | 119.20942 | 41092 ft | 464 kts | 318° |
| 2026-05-05 05:39 | 31.62315 | 119.16381 | 41092 ft | 464 kts | 318° |
| 2026-05-05 05:40 | 31.67400 | 119.11731 | 41093 ft | 462 kts | 315° |
| 2026-05-05 05:40 | 31.72169 | 119.06753 | 41091 ft | 461 kts | 313° |
| 2026-05-05 05:41 | 31.76930 | 119.01710 | 41091 ft | 461 kts | 314° |
| 2026-05-05 05:41 | 31.81969 | 118.96992 | 41093 ft | 468 kts | 323° |
| 2026-05-05 05:42 | 31.87906 | 118.93712 | 41093 ft | 475 kts | 333° |
| 2026-05-05 05:42 | 31.94087 | 118.90920 | 41091 ft | 476 kts | 334° |
| 2026-05-05 05:43 | 32.00299 | 118.88184 | 41087 ft | 476 kts | 334° |
| 2026-05-05 05:43 | 32.06494 | 118.85425 | 41084 ft | 476 kts | 334° |
| 2026-05-05 05:44 | 32.12680 | 118.82644 | 41082 ft | 476 kts | 334° |
| 2026-05-05 05:44 | 32.18823 | 118.79870 | 41079 ft | 475 kts | 334° |
| 2026-05-05 05:45 | 32.25008 | 118.77074 | 41077 ft | 475 kts | 334° |
| 2026-05-05 05:45 | 32.31197 | 118.74273 | 41075 ft | 475 kts | 334° |
| 2026-05-05 05:46 | 32.37369 | 118.71476 | 41067 ft | 475 kts | 334° |
| 2026-05-05 05:46 | 32.43549 | 118.68672 | 41062 ft | 475 kts | 334° |
| 2026-05-05 05:47 | 32.49684 | 118.65884 | 41071 ft | 475 kts | 334° |
| 2026-05-05 05:47 | 32.55861 | 118.63073 | 41070 ft | 475 kts | 334° |
| 2026-05-05 05:48 | 32.62039 | 118.60257 | 41062 ft | 475 kts | 334° |
| 2026-05-05 05:48 | 32.68215 | 118.57440 | 41059 ft | 475 kts | 334° |
| 2026-05-05 05:49 | 32.74535 | 118.55019 | 41060 ft | 478 kts | 339° |
| 2026-05-05 05:49 | 32.80938 | 118.52882 | 41058 ft | 478 kts | 339° |
| 2026-05-05 05:50 | 32.87289 | 118.50706 | 41054 ft | 477 kts | 339° |
| 2026-05-05 05:50 | 32.93645 | 118.48451 | 41045 ft | 476 kts | 339° |
| 2026-05-05 05:51 | 32.99985 | 118.46174 | 41046 ft | 476 kts | 339° |
| 2026-05-05 05:51 | 33.06324 | 118.43892 | 41040 ft | 475 kts | 339° |
| 2026-05-05 05:52 | 33.12655 | 118.41614 | 41039 ft | 475 kts | 339° |
| 2026-05-05 05:52 | 33.18986 | 118.39334 | 41038 ft | 474 kts | 339° |
| 2026-05-05 05:53 | 33.25266 | 118.37067 | 41034 ft | 474 kts | 339° |
| 2026-05-05 05:53 | 33.31588 | 118.34789 | 41028 ft | 474 kts | 339° |
| 2026-05-05 05:54 | 33.37908 | 118.32512 | 41028 ft | 473 kts | 339° |
| 2026-05-05 05:54 | 33.44175 | 118.30250 | 41025 ft | 473 kts | 339° |
| 2026-05-05 05:55 | 33.50472 | 118.27971 | 41023 ft | 472 kts | 339° |
| 2026-05-05 05:55 | 33.56767 | 118.25690 | 41015 ft | 472 kts | 339° |
| 2026-05-05 05:56 | 33.63058 | 118.23406 | 41015 ft | 472 kts | 339° |
| 2026-05-05 05:56 | 33.69344 | 118.21121 | 41014 ft | 471 kts | 339° |
| 2026-05-05 05:57 | 33.75568 | 118.18855 | 41012 ft | 470 kts | 339° |
| 2026-05-05 05:57 | 33.81845 | 118.16567 | 41011 ft | 470 kts | 340° |
| 2026-05-05 05:58 | 33.88100 | 118.14288 | 41009 ft | 469 kts | 340° |
| 2026-05-05 05:58 | 33.94356 | 118.12016 | 41008 ft | 469 kts | 340° |
| 2026-05-05 05:59 | 34.00606 | 118.09743 | 41005 ft | 468 kts | 340° |
| 2026-05-05 05:59 | 34.06816 | 118.07495 | 41002 ft | 468 kts | 340° |
| 2026-05-05 06:00 | 34.13059 | 118.05224 | 41003 ft | 467 kts | 340° |
| 2026-05-05 06:00 | 34.19284 | 118.02956 | 40998 ft | 467 kts | 340° |
| 2026-05-05 06:01 | 34.25509 | 118.00687 | 41000 ft | 466 kts | 340° |
| 2026-05-05 06:01 | 34.31687 | 117.98451 | 40996 ft | 466 kts | 340° |
| 2026-05-05 06:02 | 34.37914 | 117.96235 | 40997 ft | 466 kts | 340° |
| 2026-05-05 06:02 | 34.44138 | 117.94021 | 40996 ft | 466 kts | 340° |
| 2026-05-05 06:03 | 34.50358 | 117.91800 | 40992 ft | 465 kts | 340° |
| 2026-05-05 06:03 | 34.56561 | 117.89578 | 40989 ft | 465 kts | 340° |
| 2026-05-05 06:04 | 34.62764 | 117.87352 | 40991 ft | 464 kts | 340° |
| 2026-05-05 06:04 | 34.68958 | 117.85127 | 40987 ft | 464 kts | 340° |
| 2026-05-05 06:05 | 34.75159 | 117.82895 | 40989 ft | 464 kts | 340° |
| 2026-05-05 06:05 | 34.81307 | 117.80680 | 40985 ft | 463 kts | 340° |
| 2026-05-05 06:06 | 34.87487 | 117.78438 | 40988 ft | 463 kts | 340° |
| 2026-05-05 06:06 | 34.93660 | 117.76172 | 40981 ft | 463 kts | 340° |
| 2026-05-05 06:07 | 34.99823 | 117.73909 | 40981 ft | 462 kts | 340° |
| 2026-05-05 06:07 | 35.04948 | 117.72029 | 40977 ft | 462 kts | 340° |
| 2026-05-05 06:08 | 35.11102 | 117.69780 | 40976 ft | 461 kts | 340° |
| 2026-05-05 06:08 | 35.17218 | 117.67535 | 40977 ft | 461 kts | 340° |
| 2026-05-05 06:09 | 35.23363 | 117.65273 | 40974 ft | 461 kts | 340° |
| 2026-05-05 06:09 | 35.29514 | 117.63007 | 40972 ft | 461 kts | 340° |
| 2026-05-05 06:10 | 35.35652 | 117.60743 | 40967 ft | 460 kts | 340° |
| 2026-05-05 06:10 | 35.41782 | 117.58479 | 40966 ft | 460 kts | 340° |
| 2026-05-05 06:11 | 35.47909 | 117.56214 | 40963 ft | 460 kts | 341° |
| 2026-05-05 06:11 | 35.54028 | 117.53948 | 40960 ft | 459 kts | 340° |
| 2026-05-05 06:12 | 35.60108 | 117.51692 | 40957 ft | 459 kts | 341° |
| 2026-05-05 06:12 | 35.66225 | 117.49420 | 40955 ft | 459 kts | 340° |
| 2026-05-05 06:13 | 35.72341 | 117.47143 | 40947 ft | 459 kts | 341° |
| 2026-05-05 06:13 | 35.78444 | 117.44869 | 40945 ft | 458 kts | 340° |
| 2026-05-05 06:14 | 35.84557 | 117.42587 | 40944 ft | 458 kts | 340° |
| 2026-05-05 06:14 | 35.90656 | 117.40306 | 40944 ft | 458 kts | 340° |
| 2026-05-05 06:15 | 35.96723 | 117.38034 | 40938 ft | 458 kts | 340° |
| 2026-05-05 06:15 | 36.02825 | 117.35752 | 40938 ft | 457 kts | 341° |
| 2026-05-05 06:16 | 36.08925 | 117.33500 | 40939 ft | 457 kts | 341° |
| 2026-05-05 06:16 | 36.15030 | 117.31247 | 40936 ft | 457 kts | 341° |
| 2026-05-05 06:17 | 36.21084 | 117.29007 | 40933 ft | 457 kts | 341° |
| 2026-05-05 06:17 | 36.27172 | 117.26748 | 40935 ft | 456 kts | 341° |
| 2026-05-05 06:18 | 36.33258 | 117.24485 | 40929 ft | 456 kts | 341° |
| 2026-05-05 06:18 | 36.39330 | 117.22225 | 40926 ft | 457 kts | 341° |
| 2026-05-05 06:19 | 36.45281 | 117.19495 | 40925 ft | 454 kts | 336° |
| 2026-05-05 06:19 | 36.51113 | 117.16495 | 40920 ft | 453 kts | 335° |
| 2026-05-05 06:20 | 36.56892 | 117.13473 | 40912 ft | 453 kts | 335° |
| 2026-05-05 06:20 | 36.62704 | 117.10434 | 40909 ft | 453 kts | 335° |
| 2026-05-05 06:21 | 36.68519 | 117.07396 | 40908 ft | 453 kts | 335° |
| 2026-05-05 06:21 | 36.74329 | 117.04359 | 40904 ft | 452 kts | 335° |
| 2026-05-05 06:22 | 36.80127 | 117.01324 | 40899 ft | 452 kts | 335° |
| 2026-05-05 06:22 | 36.85926 | 116.98282 | 40897 ft | 452 kts | 335° |
| 2026-05-05 06:23 | 36.91724 | 116.95236 | 40896 ft | 451 kts | 335° |
| 2026-05-05 06:23 | 36.97476 | 116.92209 | 40889 ft | 451 kts | 335° |
| 2026-05-05 06:24 | 37.03261 | 116.89160 | 40881 ft | 451 kts | 335° |
| 2026-05-05 06:24 | 37.09047 | 116.86106 | 40886 ft | 450 kts | 335° |
| 2026-05-05 06:25 | 37.14832 | 116.83046 | 40883 ft | 450 kts | 335° |
| 2026-05-05 06:25 | 37.20605 | 116.80009 | 40877 ft | 450 kts | 336° |
| 2026-05-05 06:26 | 37.26570 | 116.77563 | 40883 ft | 451 kts | 340° |
| 2026-05-05 06:26 | 37.32594 | 116.75274 | 40880 ft | 451 kts | 341° |
| 2026-05-05 06:27 | 37.41578 | 116.71898 | 40870 ft | 451 kts | 341° |
| 2026-05-05 06:28 | 37.47579 | 116.69629 | 40866 ft | 450 kts | 341° |
| 2026-05-05 06:28 | 37.53591 | 116.67346 | 40868 ft | 450 kts | 341° |
| 2026-05-05 06:29 | 37.59586 | 116.65065 | 40865 ft | 450 kts | 341° |
| 2026-05-05 06:29 | 37.65575 | 116.62784 | 40859 ft | 449 kts | 341° |
| 2026-05-05 06:30 | 37.71565 | 116.60498 | 40853 ft | 449 kts | 340° |
| 2026-05-05 06:30 | 37.77543 | 116.58213 | 40859 ft | 449 kts | 340° |
| 2026-05-05 06:31 | 37.83513 | 116.55928 | 40497 ft | 445 kts | 341° |
| 2026-05-05 06:31 | 37.86467 | 116.54795 | 40112 ft | 442 kts | 341° |
| 2026-05-05 06:31 | 37.89417 | 116.53663 | 39860 ft | 444 kts | 341° |
| 2026-05-05 06:31 | 37.92369 | 116.52529 | 39260 ft | 444 kts | 341° |
| 2026-05-05 06:32 | 37.95306 | 116.51291 | 38556 ft | 445 kts | 337° |
| 2026-05-05 06:32 | 37.98076 | 116.49651 | 37769 ft | 445 kts | 330° |
| 2026-05-05 06:32 | 38.00689 | 116.47564 | 37053 ft | 443 kts | 325° |
| 2026-05-05 06:32 | 38.03228 | 116.45338 | 36360 ft | 443 kts | 324° |
| 2026-05-05 06:33 | 38.05736 | 116.43063 | 35653 ft | 443 kts | 324° |
| 2026-05-05 06:33 | 38.08230 | 116.40765 | 34923 ft | 443 kts | 323° |
| 2026-05-05 06:33 | 38.10727 | 116.38451 | 34124 ft | 445 kts | 323° |
| 2026-05-05 06:33 | 38.13241 | 116.36126 | 33197 ft | 449 kts | 323° |
| 2026-05-05 06:34 | 38.15775 | 116.33787 | 32278 ft | 451 kts | 323° |
| 2026-05-05 06:34 | 38.18321 | 116.31438 | 31355 ft | 453 kts | 323° |
| 2026-05-05 06:34 | 38.20893 | 116.29109 | 30401 ft | 455 kts | 326° |
| 2026-05-05 06:34 | 38.23712 | 116.27222 | 29370 ft | 461 kts | 337° |
| 2026-05-05 06:35 | 38.26813 | 116.26168 | 28550 ft | 462 kts | 349° |
| 2026-05-05 06:35 | 38.29986 | 116.26062 | 27801 ft | 464 kts | 2° |
| 2026-05-05 06:35 | 38.33160 | 116.26843 | 27057 ft | 465 kts | 11° |
| 2026-05-05 06:35 | 38.36273 | 116.27910 | 26311 ft | 463 kts | 12° |
| 2026-05-05 06:36 | 38.39366 | 116.28996 | 25560 ft | 460 kts | 12° |
| 2026-05-05 06:36 | 38.42462 | 116.30076 | 24810 ft | 459 kts | 12° |
| 2026-05-05 06:36 | 38.45532 | 116.31141 | 24070 ft | 457 kts | 12° |
| 2026-05-05 06:36 | 38.48601 | 116.32204 | 23328 ft | 456 kts | 12° |
| 2026-05-05 06:37 | 38.51649 | 116.33257 | 22494 ft | 453 kts | 12° |
| 2026-05-05 06:37 | 38.54680 | 116.34305 | 21740 ft | 449 kts | 12° |
| 2026-05-05 06:37 | 38.57686 | 116.35348 | 20994 ft | 444 kts | 12° |
| 2026-05-05 06:37 | 38.60651 | 116.36375 | 20258 ft | 440 kts | 12° |
| 2026-05-05 06:38 | 38.63600 | 116.37403 | 19516 ft | 436 kts | 12° |
| 2026-05-05 06:38 | 38.66434 | 116.38669 | 18793 ft | 435 kts | 19° |
| 2026-05-05 06:38 | 38.69228 | 116.40148 | 18102 ft | 432 kts | 20° |
| 2026-05-05 06:38 | 38.71987 | 116.41634 | 17319 ft | 428 kts | 20° |
| 2026-05-05 06:39 | 38.74721 | 116.43107 | 16590 ft | 424 kts | 19° |
| 2026-05-05 06:39 | 38.77426 | 116.44562 | 15878 ft | 419 kts | 20° |
| 2026-05-05 06:39 | 38.80104 | 116.46002 | 15164 ft | 416 kts | 20° |
| 2026-05-05 06:39 | 38.82761 | 116.47429 | 14453 ft | 412 kts | 20° |
| 2026-05-05 06:40 | 38.85399 | 116.48849 | 13748 ft | 410 kts | 20° |
| 2026-05-05 06:40 | 38.88025 | 116.50264 | 12975 ft | 407 kts | 20° |
| 2026-05-05 06:40 | 38.90633 | 116.51667 | 12239 ft | 405 kts | 20° |
| 2026-05-05 06:40 | 38.93227 | 116.53061 | 11523 ft | 404 kts | 20° |
| 2026-05-05 06:41 | 38.95779 | 116.54435 | 11255 ft | 389 kts | 21° |
| 2026-05-05 06:41 | 38.98213 | 116.55750 | 11124 ft | 371 kts | 21° |
| 2026-05-05 06:41 | 39.00508 | 116.56990 | 10993 ft | 354 kts | 20° |
| 2026-05-05 06:41 | 39.02732 | 116.58194 | 10872 ft | 340 kts | 20° |
| 2026-05-05 06:42 | 39.04871 | 116.59353 | 10734 ft | 327 kts | 20° |
| 2026-05-05 06:42 | 39.06941 | 116.60415 | 10604 ft | 314 kts | 15° |
| 2026-05-05 06:42 | 39.09077 | 116.60769 | 10442 ft | 308 kts | 353° |
| 2026-05-05 06:42 | 39.11175 | 116.60494 | 10254 ft | 299 kts | 348° |
| 2026-05-05 06:43 | 39.13225 | 116.60144 | 9977 ft | 297 kts | 348° |
| 2026-05-05 06:43 | 39.15284 | 116.59802 | 9648 ft | 301 kts | 348° |
| 2026-05-05 06:43 | 39.17393 | 116.59460 | 9283 ft | 306 kts | 348° |
| 2026-05-05 06:43 | 39.19488 | 116.59128 | 8929 ft | 306 kts | 348° |
| 2026-05-05 06:44 | 39.21602 | 116.58796 | 8580 ft | 305 kts | 348° |
| 2026-05-05 06:44 | 39.23705 | 116.58469 | 8233 ft | 304 kts | 348° |
| 2026-05-05 06:44 | 39.25799 | 116.58145 | 7891 ft | 302 kts | 348° |
| 2026-05-05 06:44 | 39.27890 | 116.57819 | 7552 ft | 302 kts | 348° |
| 2026-05-05 06:45 | 39.29967 | 116.57496 | 7214 ft | 301 kts | 348° |
| 2026-05-05 06:45 | 39.32051 | 116.57172 | 6876 ft | 300 kts | 348° |
| 2026-05-05 06:45 | 39.34122 | 116.56856 | 6758 ft | 300 kts | 348° |
| 2026-05-05 06:45 | 39.36205 | 116.56530 | 6729 ft | 301 kts | 348° |
| 2026-05-05 06:46 | 39.38284 | 116.56202 | 6711 ft | 301 kts | 348° |
| 2026-05-05 06:46 | 39.40371 | 116.55873 | 6701 ft | 302 kts | 348° |
| 2026-05-05 06:46 | 39.42444 | 116.55549 | 6668 ft | 301 kts | 348° |
| 2026-05-05 06:46 | 39.44531 | 116.55221 | 6629 ft | 301 kts | 348° |
| 2026-05-05 06:47 | 39.46608 | 116.54897 | 6603 ft | 300 kts | 348° |
| 2026-05-05 06:47 | 39.48657 | 116.54576 | 6563 ft | 300 kts | 347° |
| 2026-05-05 06:47 | 39.50732 | 116.54253 | 6528 ft | 299 kts | 348° |
| 2026-05-05 06:47 | 39.52798 | 116.53929 | 6489 ft | 299 kts | 347° |
| 2026-05-05 06:48 | 39.54875 | 116.53602 | 6455 ft | 300 kts | 347° |
| 2026-05-05 06:48 | 39.56950 | 116.53282 | 6413 ft | 299 kts | 348° |
| 2026-05-05 06:48 | 39.59017 | 116.52960 | 6375 ft | 298 kts | 347° |
| 2026-05-05 06:48 | 39.61047 | 116.52639 | 6324 ft | 297 kts | 347° |
| 2026-05-05 06:49 | 39.63100 | 116.52313 | 6310 ft | 297 kts | 347° |
| 2026-05-05 06:49 | 39.65154 | 116.51988 | 6270 ft | 297 kts | 347° |
| 2026-05-05 06:49 | 39.67205 | 116.51667 | 6231 ft | 296 kts | 347° |
| 2026-05-05 06:49 | 39.69253 | 116.51344 | 6192 ft | 296 kts | 347° |
| 2026-05-05 06:50 | 39.71301 | 116.51022 | 6152 ft | 296 kts | 347° |
| 2026-05-05 06:50 | 39.73354 | 116.50696 | 6119 ft | 297 kts | 347° |
| 2026-05-05 06:50 | 39.75384 | 116.50379 | 6022 ft | 289 kts | 347° |
| 2026-05-05 06:50 | 39.77336 | 116.50033 | 5862 ft | 276 kts | 342° |
| 2026-05-05 06:51 | 39.78971 | 116.49006 | 5645 ft | 251 kts | 309° |
| 2026-05-05 06:51 | 39.79841 | 116.47208 | 5494 ft | 227 kts | 279° |
| 2026-05-05 06:51 | 39.79961 | 116.45257 | 5359 ft | 217 kts | 260° |
| 2026-05-05 06:51 | 39.79784 | 116.43310 | 5235 ft | 217 kts | 257° |
| 2026-05-05 06:52 | 39.79578 | 116.41361 | 5103 ft | 217 kts | 257° |
| 2026-05-05 06:52 | 39.79379 | 116.39417 | 4972 ft | 216 kts | 257° |
| 2026-05-05 06:52 | 39.79167 | 116.37508 | 4879 ft | 207 kts | 253° |
| 2026-05-05 06:52 | 39.78607 | 116.35887 | 4803 ft | 190 kts | 228° |
| 2026-05-05 06:53 | 39.77576 | 116.34943 | 4744 ft | 179 kts | 201° |
| 2026-05-05 06:53 | 39.76368 | 116.34773 | 4734 ft | 170 kts | 182° |
| 2026-05-05 06:53 | 39.75231 | 116.34963 | 4654 ft | 160 kts | 179° |
| 2026-05-05 06:53 | 39.74146 | 116.35172 | 4474 ft | 155 kts | 180° |
| 2026-05-05 06:54 | 39.73092 | 116.35337 | 4235 ft | 154 kts | 180° |
| 2026-05-05 06:54 | 39.72036 | 116.35501 | 3999 ft | 152 kts | 179° |
| 2026-05-05 06:54 | 39.70993 | 116.35670 | 3778 ft | 151 kts | 179° |
| 2026-05-05 06:54 | 39.69957 | 116.35836 | 3555 ft | 146 kts | 178° |
| 2026-05-05 06:55 | 39.68979 | 116.35992 | 3387 ft | 137 kts | 178° |
| 2026-05-05 06:55 | 39.68063 | 116.36138 | 3201 ft | 128 kts | 178° |
| 2026-05-05 06:55 | 39.67196 | 116.36274 | 3059 ft | 124 kts | 177° |
| 2026-05-05 06:55 | 39.66633 | 116.36365 | 2949 ft | 122 kts | 176° |
| 2026-05-05 06:56 | 39.65518 | 116.36544 | 2749 ft | 123 kts | 176° |
| 2026-05-05 06:56 | 39.64939 | 116.36634 | 2661 ft | 123 kts | 175° |
| 2026-05-05 06:56 | 39.63804 | 116.36819 | 2424 ft | 124 kts | 177° |
| 2026-05-05 06:56 | 39.63241 | 116.36907 | 2361 ft | 123 kts | 176° |
| 2026-05-05 06:57 | 39.62374 | 116.37045 | 2125 ft | 127 kts | 177° |
| 2026-05-05 06:57 | 39.61518 | 116.37179 | 2000 ft | 124 kts | 177° |
| 2026-05-05 06:57 | 39.60665 | 116.37310 | 1843 ft | 123 kts | 179° |
| 2026-05-05 06:57 | 39.59809 | 116.37448 | 1698 ft | 124 kts | 177° |
| 2026-05-05 06:58 | 39.58954 | 116.37588 | 1522 ft | 123 kts | 177° |
| 2026-05-05 06:58 | 39.58102 | 116.37720 | 1398 ft | 124 kts | 175° |
| 2026-05-05 06:58 | 39.57209 | 116.37866 | 1168 ft | 130 kts | 174° |
| 2026-05-05 06:58 | 39.56343 | 116.38026 | 971 ft | 126 kts | 175° |
| 2026-05-05 06:59 | 39.55478 | 116.38138 | 731 ft | 123 kts | 178° |
| 2026-05-05 06:59 | 39.54628 | 116.38245 | 590 ft | 125 kts | 174° |
| 2026-05-05 06:59 | 39.53722 | 116.38417 | 463 ft | 134 kts | 173° |
| 2026-05-05 06:59 | 39.52815 | 116.38598 | 255 ft | 128 kts | 173° |
| 2026-05-05 07:00 | 39.51950 | 116.38724 | 139 ft | 126 kts | 175° |
| 2026-05-05 07:00 | 39.51109 | 116.38833 | 105 ft | 109 kts | 174° |
| 2026-05-05 07:00 | 39.50472 | 116.38929 | 101 ft | 79 kts | 172° |
| 2026-05-05 07:00 | 39.50010 | 116.39003 | 102 ft | 57 kts | 173° |
| 2026-05-05 07:01 | 39.49756 | 116.39054 | 106 ft | 17 kts | 159° |
| 2026-05-05 07:01 | 39.49631 | 116.39156 | 103 ft | 23 kts | 146° |